createdAt,value
2018-06-15T00:01:02.163Z,4.47
2018-06-15T00:03:30.973Z,4.27
2018-06-15T00:05:59.830Z,3.90
2018-06-15T00:08:28.244Z,4.13
2018-06-15T00:10:57.104Z,4.10
2018-06-15T00:13:25.946Z,4.30
2018-06-15T00:15:54.819Z,4.40
2018-06-15T00:18:23.748Z,4.40
2018-06-15T00:20:52.592Z,4.40
2018-06-15T00:23:21.436Z,4.20
2018-06-15T00:25:50.236Z,4.63
2018-06-15T00:28:19.140Z,4.60
2018-06-15T00:30:47.543Z,4.43
2018-06-15T00:33:16.395Z,4.27
2018-06-15T00:35:45.192Z,4.37
2018-06-15T00:38:13.621Z,4.10
2018-06-15T00:40:42.416Z,4.27
2018-06-15T00:43:11.283Z,4.67
2018-06-15T00:45:40.124Z,4.60
2018-06-15T00:48:08.933Z,4.07
2018-06-15T00:50:37.362Z,4.20
2018-06-15T00:53:06.135Z,4.37
2018-06-15T00:55:34.965Z,4.27
2018-06-15T00:58:03.856Z,4.40
2018-06-15T01:00:32.828Z,3.90
2018-06-15T01:03:01.672Z,4.30
2018-06-15T01:05:30.496Z,4.00
2018-06-15T01:07:59.320Z,4.10
2018-06-15T01:10:28.159Z,4.23
2018-06-15T01:12:57.000Z,4.50
2018-06-15T01:15:25.841Z,4.30
2018-06-15T01:17:54.642Z,4.47
2018-06-15T01:20:23.467Z,4.67
2018-06-15T01:22:52.303Z,4.00
2018-06-15T01:25:21.149Z,4.30
2018-06-15T01:27:50.000Z,4.40
2018-06-15T01:30:18.848Z,4.43
2018-06-15T01:32:47.647Z,4.77
2018-06-15T01:35:16.497Z,5.00
2018-06-15T01:37:45.336Z,4.23
2018-06-15T01:40:14.150Z,4.63
2018-06-15T01:42:43.036Z,4.83
2018-06-15T01:45:11.892Z,4.70
2018-06-15T01:47:40.740Z,4.93
2018-06-15T01:50:09.661Z,5.40
2018-06-15T01:52:38.067Z,4.50
2018-06-15T01:55:06.921Z,4.90
2018-06-15T01:57:35.792Z,4.73
2018-06-15T02:00:04.641Z,4.27
2018-06-15T02:02:33.480Z,4.80
2018-06-15T02:05:02.300Z,4.83
2018-06-15T02:07:31.144Z,4.30
2018-06-15T02:09:59.989Z,4.77
2018-06-15T02:12:28.868Z,4.60
2018-06-15T02:14:57.748Z,5.13
2018-06-15T02:17:26.572Z,4.70
2018-06-15T02:19:55.496Z,4.67
2018-06-15T02:22:24.270Z,4.50
2018-06-15T02:24:53.176Z,4.50
2018-06-15T02:27:21.981Z,4.90
2018-06-15T02:29:50.897Z,4.00
2018-06-15T02:32:19.715Z,4.07
2018-06-15T02:34:48.613Z,4.40
2018-06-15T02:37:17.530Z,4.10
2018-06-15T02:39:46.390Z,4.17
2018-06-15T02:42:15.300Z,4.80
2018-06-15T02:44:44.145Z,4.30
2018-06-15T02:47:13.020Z,5.27
2018-06-15T02:49:41.897Z,4.63
2018-06-15T02:52:10.789Z,4.63
2018-06-15T02:54:39.432Z,4.10
2018-06-15T02:57:08.357Z,4.30
2018-06-15T02:59:37.277Z,4.43
2018-06-15T03:02:06.501Z,4.83
2018-06-15T03:04:35.388Z,4.37
2018-06-15T03:07:04.200Z,4.67
2018-06-15T03:09:33.133Z,5.00
2018-06-15T03:12:01.572Z,4.47
2018-06-15T03:14:30.440Z,4.43
2018-06-15T03:16:59.289Z,4.67
2018-06-15T03:19:27.983Z,4.70
2018-06-15T03:21:56.440Z,4.43
2018-06-15T03:24:25.308Z,4.43
2018-06-15T03:26:54.184Z,4.97
2018-06-15T03:29:23.032Z,4.63
2018-06-15T03:31:51.541Z,4.70
2018-06-15T03:34:20.352Z,4.57
2018-06-15T03:36:49.253Z,4.93
2018-06-15T03:39:18.050Z,5.03
2018-06-15T03:41:46.949Z,5.43
2018-06-15T03:44:15.920Z,4.80
2018-06-15T03:46:44.722Z,4.97
2018-06-15T03:49:13.620Z,4.83
2018-06-15T03:51:42.482Z,5.10
2018-06-15T03:54:11.270Z,5.40
2018-06-15T03:56:40.232Z,4.90
2018-06-15T03:59:09.153Z,5.43
2018-06-15T04:01:38.037Z,5.10
2018-06-15T04:04:06.831Z,4.47
2018-06-15T04:06:35.744Z,5.43
2018-06-15T04:09:06.781Z,5.63
2018-06-15T04:11:35.640Z,5.57
2018-06-15T04:14:04.439Z,5.47
2018-06-15T04:16:33.437Z,4.90
2018-06-15T04:19:02.348Z,5.73
2018-06-15T04:21:31.217Z,5.67
2018-06-15T04:24:00.141Z,5.17
2018-06-15T04:26:28.957Z,5.27
2018-06-15T04:28:57.890Z,5.07
2018-06-15T04:31:26.744Z,5.73
2018-06-15T04:33:55.652Z,5.63
2018-06-15T04:36:24.501Z,6.47
2018-06-15T04:38:53.353Z,6.10
2018-06-15T04:41:22.240Z,5.83
2018-06-15T04:43:51.218Z,5.50
2018-06-15T04:46:20.123Z,5.60
2018-06-15T04:48:48.580Z,5.90
2018-06-15T04:51:17.479Z,5.40
2018-06-15T04:53:46.281Z,4.80
2018-06-15T04:56:15.209Z,5.13
2018-06-15T04:58:44.069Z,5.37
2018-06-15T05:01:12.961Z,4.97
2018-06-15T05:03:41.856Z,5.13
2018-06-15T05:06:11.009Z,4.97
2018-06-15T05:08:39.981Z,5.10
2018-06-15T05:11:08.480Z,5.00
2018-06-15T05:13:37.428Z,5.33
2018-06-15T05:16:06.371Z,5.10
2018-06-15T05:18:35.345Z,5.13
2018-06-15T05:21:04.266Z,4.63
2018-06-15T05:23:33.209Z,5.57
2018-06-15T05:26:02.214Z,5.00
2018-06-15T05:28:31.197Z,5.10
2018-06-15T05:31:00.140Z,4.93
2018-06-15T05:33:29.105Z,4.87
2018-06-15T05:35:58.432Z,4.57
2018-06-15T05:38:27.497Z,4.90
2018-06-15T05:40:56.764Z,5.17
2018-06-15T05:43:25.945Z,5.03
2018-06-15T05:45:54.902Z,4.90
2018-06-15T05:48:23.845Z,4.67
2018-06-15T05:50:52.807Z,4.40
2018-06-15T05:53:21.674Z,5.07
2018-06-15T05:55:50.702Z,5.00
2018-06-15T05:58:19.791Z,4.37
2018-06-15T06:00:48.745Z,4.33
2018-06-15T06:03:19.469Z,4.30
2018-06-15T06:05:49.064Z,3.50
2018-06-15T06:08:20.341Z,3.10
2018-06-15T06:11:10.124Z,3.30
2018-06-15T06:13:47.941Z,3.30
2018-06-15T06:16:16.831Z,5.73
2018-06-15T06:18:46.208Z,4.60
2018-06-15T06:21:15.767Z,2.90
2018-06-15T06:23:45.177Z,2.93
2018-06-15T06:26:14.726Z,3.20
2018-06-15T06:28:44.300Z,3.37
2018-06-15T06:31:13.167Z,3.20
2018-06-15T06:33:42.525Z,3.60
2018-06-15T06:36:11.866Z,3.40
2018-06-15T06:38:41.409Z,3.50
2018-06-15T06:41:10.940Z,3.03
2018-06-15T06:43:40.419Z,3.37
2018-06-15T06:46:09.767Z,3.73
2018-06-15T06:48:39.206Z,3.17
2018-06-15T06:51:09.182Z,2.77
2018-06-15T06:53:39.086Z,3.20
2018-06-15T06:56:10.111Z,2.77
2018-06-15T06:58:39.919Z,3.73
2018-06-15T07:01:09.221Z,3.47
2018-06-15T07:03:39.328Z,2.70
2018-06-15T07:06:09.331Z,2.87
2018-06-15T07:08:38.605Z,3.00
2018-06-15T07:11:13.124Z,2.77
2018-06-15T07:13:43.064Z,2.80
2018-06-15T07:16:12.892Z,2.93
2018-06-15T07:18:42.683Z,3.00
2018-06-15T07:21:12.689Z,2.70
2018-06-15T07:23:42.852Z,2.60
2018-06-15T07:26:13.142Z,2.70
2018-06-15T07:28:43.159Z,2.50
2018-06-15T07:31:12.519Z,2.60
2018-06-15T07:33:42.007Z,2.80
2018-06-15T07:36:12.262Z,3.07
2018-06-15T07:38:42.590Z,2.67
2018-06-15T07:41:14.585Z,2.50
2018-06-15T07:43:46.046Z,2.67
2018-06-15T07:46:20.416Z,2.80
2018-06-15T07:48:53.530Z,4.70
2018-06-15T07:54:27.766Z,2.73
2018-06-15T07:56:58.657Z,3.00
2018-06-15T07:59:35.935Z,2.83
2018-06-15T08:05:03.579Z,3.43
2018-06-15T08:07:33.629Z,2.77
2018-06-15T08:10:04.395Z,3.30
2018-06-15T08:12:33.248Z,3.20
2018-06-15T08:15:02.658Z,3.10
2018-06-15T08:17:32.912Z,2.90
2018-06-15T08:20:02.438Z,2.70
2018-06-15T08:22:40.808Z,3.23
2018-06-15T08:25:10.775Z,3.03
2018-06-15T08:27:40.709Z,2.80
2018-06-15T08:30:10.782Z,2.70
2018-06-15T08:32:40.802Z,3.00
2018-06-15T08:35:11.326Z,2.87
2018-06-15T08:37:41.475Z,2.67
2018-06-15T08:40:10.993Z,3.00
2018-06-15T08:42:43.855Z,2.90
2018-06-15T08:45:31.059Z,3.00
2018-06-15T08:53:54.888Z,3.20
2018-06-15T08:56:23.780Z,2.77
2018-06-15T08:58:52.704Z,2.93
2018-06-15T09:01:21.753Z,2.60
2018-06-15T09:03:50.692Z,2.57
2018-06-15T09:06:19.652Z,2.70
2018-06-15T09:08:48.684Z,2.90
2018-06-15T09:11:17.576Z,2.93
2018-06-15T09:13:46.524Z,2.70
2018-06-15T09:16:15.396Z,2.80
2018-06-15T09:18:44.405Z,3.13
2018-06-15T09:21:13.406Z,2.80
2018-06-15T09:23:42.295Z,3.03
2018-06-15T09:26:11.212Z,2.70
2018-06-15T09:28:40.045Z,2.50
2018-06-15T09:31:09.043Z,2.63
2018-06-15T09:33:37.872Z,2.80
2018-06-15T09:36:06.837Z,2.63
2018-06-15T09:38:35.840Z,2.43
2018-06-15T09:41:04.711Z,2.60
2018-06-15T09:43:33.574Z,2.70
2018-06-15T09:46:02.708Z,2.60
2018-06-15T09:48:31.525Z,3.10
2018-06-15T09:51:00.518Z,2.57
2018-06-15T09:53:29.460Z,2.50
2018-06-15T09:55:58.328Z,3.10
2018-06-15T09:58:27.517Z,2.70
2018-06-15T10:01:01.472Z,2.63
2018-06-15T10:03:31.856Z,2.90
2018-06-15T10:06:00.818Z,2.80
2018-06-15T10:08:29.787Z,2.77
2018-06-15T10:11:00.116Z,2.63
2018-06-15T10:13:33.832Z,2.73
2018-06-15T10:16:02.982Z,2.53
2018-06-15T10:18:34.245Z,2.97
2018-06-15T10:21:05.142Z,2.50
2018-06-15T10:23:35.603Z,2.87
2018-06-15T10:26:05.805Z,2.87
2018-06-15T10:28:35.817Z,2.73
2018-06-15T10:31:05.940Z,2.62
2018-06-15T10:33:36.907Z,2.90
2018-06-15T10:36:06.506Z,2.60
2018-06-15T10:38:37.283Z,3.00
2018-06-15T10:41:08.117Z,3.27
2018-06-15T10:43:37.837Z,2.57
2018-06-15T10:46:06.920Z,3.20
2018-06-15T10:48:37.122Z,2.77
2018-06-15T10:51:07.419Z,2.77
2018-06-15T10:53:37.257Z,2.83
2018-06-15T10:56:07.802Z,2.70
2018-06-15T10:58:36.951Z,2.90
2018-06-15T11:01:06.622Z,2.73
2018-06-15T11:03:36.648Z,2.93
2018-06-15T11:06:07.133Z,2.97
2018-06-15T11:08:38.753Z,3.07
2018-06-15T11:11:08.995Z,2.80
2018-06-15T11:13:39.506Z,2.70
2018-06-15T11:16:09.594Z,2.80
2018-06-15T11:18:39.711Z,2.50
2018-06-15T11:21:09.535Z,2.43
2018-06-15T11:23:39.272Z,2.50
2018-06-15T11:26:08.377Z,2.23
2018-06-15T11:28:37.328Z,2.87
2018-06-15T11:31:06.238Z,2.53
2018-06-15T11:33:35.289Z,2.83
2018-06-15T11:36:05.098Z,2.90
2018-06-15T11:38:34.044Z,2.90
2018-06-15T11:41:03.021Z,2.77
2018-06-15T11:43:31.840Z,2.60
2018-06-15T11:46:00.800Z,2.73
2018-06-15T11:48:29.707Z,2.73
2018-06-15T11:50:58.596Z,2.90
2018-06-15T11:53:27.835Z,2.67
2018-06-15T11:55:56.660Z,2.80
2018-06-15T11:58:25.728Z,2.67
2018-06-15T12:00:54.782Z,2.60
2018-06-15T12:03:23.692Z,2.50
2018-06-15T12:05:52.643Z,3.00
2018-06-15T12:08:21.134Z,2.77
2018-06-15T12:10:50.573Z,3.20
2018-06-15T12:13:19.497Z,2.50
2018-06-15T12:15:48.537Z,2.57
2018-06-15T12:18:17.436Z,2.70
2018-06-15T12:20:46.263Z,2.60
2018-06-15T12:23:15.424Z,2.40
2018-06-15T12:25:44.282Z,2.47
2018-06-15T12:28:13.315Z,2.73
2018-06-15T12:30:42.316Z,3.07
2018-06-15T12:33:11.423Z,2.73
2018-06-15T12:35:40.356Z,2.80
2018-06-15T12:38:09.289Z,2.50
2018-06-15T12:40:38.357Z,2.50
2018-06-15T12:43:07.400Z,2.83
2018-06-15T12:45:36.408Z,2.90
2018-06-15T12:48:07.124Z,2.53
2018-06-15T12:50:37.695Z,2.70
2018-06-15T12:53:06.187Z,2.83
2018-06-15T12:55:35.123Z,3.13
2018-06-15T12:58:04.221Z,3.00
2018-06-15T13:00:32.826Z,4.93
2018-06-15T13:03:02.368Z,2.93
2018-06-15T13:05:31.730Z,3.10
2018-06-15T13:08:01.098Z,3.30
2018-06-15T13:10:31.116Z,2.57
2018-06-15T13:13:00.029Z,2.80
2018-06-15T13:15:29.120Z,3.00
2018-06-15T13:17:58.164Z,3.03
2018-06-15T13:20:27.268Z,2.60
2018-06-15T13:22:56.299Z,2.92
2018-06-15T13:25:25.388Z,2.80
2018-06-15T13:27:54.349Z,2.80
2018-06-15T13:30:23.409Z,2.83
2018-06-15T13:32:52.877Z,2.83
2018-06-15T13:35:22.021Z,2.77
2018-06-15T13:37:50.964Z,3.10
2018-06-15T13:40:19.948Z,3.40
2018-06-15T13:42:48.910Z,2.65
2018-06-15T13:45:17.935Z,3.05
2018-06-15T13:47:47.184Z,3.02
2018-06-15T13:50:16.086Z,3.20
2018-06-15T13:52:44.773Z,2.97
2018-06-15T13:55:13.811Z,3.47
2018-06-15T13:57:42.814Z,2.95
2018-06-15T14:00:11.753Z,3.33
2018-06-15T14:02:40.676Z,3.30
2018-06-15T14:05:09.935Z,3.20
2018-06-15T14:07:38.610Z,2.87
2018-06-15T14:10:08.100Z,3.12
2018-06-15T14:12:38.116Z,3.00
2018-06-15T14:15:07.489Z,2.77
2018-06-15T14:17:36.812Z,3.20
2018-06-15T14:20:06.484Z,3.00
2018-06-15T14:22:35.418Z,3.45
2018-06-15T14:25:04.397Z,3.12
2018-06-15T14:27:33.981Z,3.50
2018-06-15T14:30:04.917Z,3.33
2018-06-15T14:32:34.512Z,3.37
2018-06-15T14:35:03.444Z,3.20
2018-06-15T14:37:32.488Z,3.20
2018-06-15T14:40:02.641Z,3.50
2018-06-15T14:42:31.552Z,3.30
2018-06-15T14:45:00.611Z,3.10
2018-06-15T14:47:30.013Z,3.20
2018-06-15T14:49:59.108Z,3.27
2018-06-15T14:52:28.195Z,3.33
2018-06-15T14:54:57.332Z,2.90
2018-06-15T14:57:26.345Z,2.80
2018-06-15T14:59:55.683Z,3.00
2018-06-15T15:02:25.042Z,2.95
2018-06-15T15:04:54.490Z,3.47
2018-06-15T15:07:23.588Z,3.05
2018-06-15T15:09:52.865Z,3.10
2018-06-15T15:12:21.796Z,3.65
2018-06-15T15:14:50.880Z,3.30
2018-06-15T15:17:19.846Z,3.50
2018-06-15T15:19:48.921Z,4.20
2018-06-15T15:22:17.796Z,3.33
2018-06-15T15:24:47.319Z,3.27
2018-06-15T15:27:16.229Z,3.20
2018-06-15T15:29:45.329Z,3.05
2018-06-15T15:32:15.554Z,3.15
2018-06-15T15:34:45.949Z,3.47
2018-06-15T15:37:14.969Z,3.30
2018-06-15T15:39:43.892Z,3.20
2018-06-15T15:42:12.887Z,3.17
2018-06-15T15:44:42.460Z,3.20
2018-06-15T15:47:11.762Z,3.47
2018-06-15T15:49:41.395Z,3.30
2018-06-15T15:52:10.425Z,3.35
2018-06-15T15:54:39.400Z,3.47
2018-06-15T15:57:09.396Z,3.50
2018-06-15T15:59:38.341Z,3.60
2018-06-15T16:02:07.295Z,3.30
2018-06-15T16:04:36.244Z,3.15
2018-06-15T16:07:06.832Z,3.40
2018-06-15T16:09:35.688Z,3.20
2018-06-15T16:12:04.714Z,3.67
2018-06-15T16:14:33.909Z,3.37
2018-06-15T16:17:03.405Z,3.13
2018-06-15T16:19:33.321Z,3.30
2018-06-15T16:22:02.500Z,3.40
2018-06-15T16:24:31.536Z,3.50
2018-06-15T16:27:01.915Z,3.33
2018-06-15T16:29:32.128Z,3.23
2018-06-15T16:32:01.881Z,3.40
2018-06-15T16:34:30.883Z,3.40
2018-06-15T16:37:00.748Z,3.20
2018-06-15T16:39:29.797Z,3.50
2018-06-15T16:41:59.012Z,3.60
2018-06-15T16:44:27.857Z,3.37
2018-06-15T16:46:56.915Z,3.30
2018-06-15T16:49:26.488Z,3.53
2018-06-15T16:51:55.411Z,3.10
2018-06-15T16:54:24.403Z,3.50
2018-06-15T16:56:53.351Z,3.67
2018-06-15T16:59:59.520Z,3.72
2018-06-15T17:02:28.520Z,3.67
2018-06-15T17:04:57.739Z,3.22
2018-06-15T17:07:27.493Z,3.70
2018-06-15T17:10:01.929Z,3.42
2018-06-15T17:12:30.882Z,2.95
2018-06-15T17:15:00.709Z,3.27
2018-06-15T17:17:29.678Z,3.52
2018-06-15T17:19:58.552Z,3.37
2018-06-15T17:22:27.460Z,3.50
2018-06-15T17:24:56.526Z,3.50
2018-06-15T17:27:25.448Z,3.00
2018-06-15T17:29:54.322Z,3.27
2018-06-15T17:32:23.295Z,3.10
2018-06-15T17:34:52.270Z,3.27
2018-06-15T17:37:21.261Z,3.33
2018-06-15T17:39:51.048Z,3.20
2018-06-15T17:42:19.588Z,3.30
2018-06-15T17:44:48.505Z,3.20
2018-06-15T17:47:18.435Z,3.50
2018-06-15T17:49:47.350Z,3.45
2018-06-15T17:52:16.276Z,3.10
2018-06-15T17:54:44.769Z,3.00
2018-06-15T17:57:13.800Z,2.80
2018-06-15T17:59:42.868Z,3.45
2018-06-15T18:02:12.030Z,3.15
2018-06-15T18:04:41.052Z,3.08
2018-06-15T18:07:10.068Z,3.20
2018-06-15T18:09:39.056Z,3.02
2018-06-15T18:12:08.584Z,3.27
2018-06-15T18:14:37.533Z,3.20
2018-06-15T18:17:06.540Z,3.08
2018-06-15T18:19:35.433Z,3.45
2018-06-15T18:22:04.419Z,3.52
2018-06-15T18:24:33.536Z,3.40
2018-06-15T18:27:02.566Z,3.40
2018-06-15T18:29:31.532Z,3.40
2018-06-15T18:32:00.682Z,3.58
2018-06-15T18:34:29.195Z,3.50
2018-06-15T18:36:58.200Z,3.47
2018-06-15T18:39:27.112Z,3.37
2018-06-15T18:41:56.168Z,3.97
2018-06-15T18:44:25.772Z,4.00
2018-06-15T18:46:55.267Z,4.07
2018-06-15T18:49:24.292Z,4.00
2018-06-15T18:51:53.494Z,3.70
2018-06-15T18:54:22.510Z,4.00
2018-06-15T18:56:51.496Z,4.27
2018-06-15T18:59:20.476Z,4.30
2018-06-15T19:01:50.421Z,4.10
2018-06-15T19:04:20.582Z,4.10
2018-06-15T19:06:50.151Z,4.60
2018-06-15T19:09:19.201Z,4.80
2018-06-15T19:11:48.172Z,4.70
2018-06-15T19:14:17.193Z,4.80
2018-06-15T19:16:46.258Z,4.43
2018-06-15T19:19:15.602Z,4.40
2018-06-15T19:21:44.677Z,5.00
2018-06-15T19:24:13.792Z,4.50
2018-06-15T19:26:43.121Z,5.23
2018-06-15T19:29:12.925Z,5.20
2018-06-15T19:31:41.976Z,4.83
2018-06-15T19:34:10.999Z,5.03
2018-06-15T19:36:40.053Z,4.63
2018-06-15T19:39:09.709Z,4.87
2018-06-15T19:41:39.381Z,4.57
2018-06-15T19:44:08.312Z,4.90
2018-06-15T19:46:37.276Z,4.77
2018-06-15T19:49:06.253Z,4.87
2018-06-15T19:51:35.311Z,4.60
2018-06-15T19:54:04.297Z,4.77
2018-06-15T19:56:33.290Z,4.70
2018-06-15T19:59:02.378Z,4.73
2018-06-15T20:01:31.317Z,4.77
2018-06-15T20:04:02.389Z,5.27
2018-06-15T20:06:31.264Z,4.70
2018-06-15T20:09:00.813Z,5.10
2018-06-15T20:11:29.628Z,5.60
2018-06-15T20:13:58.996Z,4.97
2018-06-15T20:16:28.345Z,5.60
2018-06-15T20:18:57.581Z,5.60
2018-06-15T20:21:27.027Z,4.70
2018-06-15T20:23:57.421Z,5.13
2018-06-15T20:26:26.727Z,5.13
2018-06-15T20:29:00.073Z,5.30
2018-06-15T20:31:29.157Z,5.20
2018-06-15T20:33:58.459Z,5.83
2018-06-15T20:36:28.155Z,5.13
2018-06-15T20:38:57.677Z,5.30
2018-06-15T20:41:27.439Z,4.97
2018-06-15T20:43:56.682Z,5.20
2018-06-15T20:46:26.073Z,5.23
2018-06-15T20:48:55.412Z,4.53
2018-06-15T20:51:25.718Z,5.30
2018-06-15T20:53:55.560Z,5.07
2018-06-15T20:56:29.207Z,5.03
2018-06-15T20:59:00.528Z,5.40
2018-06-15T21:01:30.995Z,5.83
2018-06-15T21:09:43.648Z,5.40
2018-06-15T21:12:13.519Z,5.77
2018-06-15T21:14:42.400Z,5.83
2018-06-15T21:17:11.808Z,5.37
2018-06-15T21:19:41.013Z,5.17
2018-06-15T21:22:19.299Z,5.13
2018-06-15T21:24:48.492Z,5.67
2018-06-15T21:27:20.063Z,5.33
2018-06-15T21:29:49.548Z,5.23
2018-06-15T21:32:18.804Z,5.27
2018-06-15T21:34:47.691Z,5.17
2018-06-15T21:37:16.915Z,5.17
2018-06-15T21:39:46.479Z,5.47
2018-06-15T21:42:16.209Z,5.60
2018-06-15T21:44:45.784Z,5.23
2018-06-15T21:47:14.952Z,5.33
2018-06-15T21:49:44.403Z,5.27
2018-06-15T21:52:14.407Z,5.37
2018-06-15T21:54:43.455Z,6.20
2018-06-15T21:57:13.010Z,5.70
2018-06-15T21:59:42.583Z,5.47
2018-06-15T22:02:11.872Z,5.13
2018-06-15T22:04:40.861Z,5.40
2018-06-15T22:07:10.296Z,5.80
2018-06-15T22:09:39.630Z,5.70
2018-06-15T22:12:08.308Z,6.60
2018-06-15T22:14:37.981Z,5.57
2018-06-15T22:17:07.796Z,5.87
2018-06-15T22:19:36.654Z,5.93
2018-06-15T22:22:08.805Z,5.90
2018-06-15T22:24:37.697Z,5.80
2018-06-15T22:27:10.114Z,5.47
2018-06-15T22:29:43.866Z,5.87
2018-06-15T22:32:16.451Z,5.67
2018-06-15T22:34:45.340Z,5.60
2018-06-15T22:37:14.280Z,5.80
2018-06-15T22:39:53.985Z,6.10
2018-06-15T22:42:26.824Z,5.87
2018-06-15T22:44:55.804Z,5.97
2018-06-15T22:47:24.841Z,5.67
2018-06-15T22:49:54.464Z,5.90
2018-06-15T22:52:23.520Z,5.73
2018-06-15T22:54:56.053Z,5.93
2018-06-15T22:57:31.847Z,6.03
2018-06-15T23:00:00.792Z,6.00
2018-06-15T23:02:32.726Z,5.80
2018-06-15T23:07:44.528Z,5.73
2018-06-15T23:10:18.144Z,6.20
2018-06-15T23:15:25.247Z,5.50
2018-06-15T23:17:56.168Z,5.90
2018-06-15T23:20:29.309Z,6.20
2018-06-15T23:22:59.260Z,6.17
2018-06-15T23:25:31.636Z,6.13
2018-06-15T23:28:03.912Z,6.13
2018-06-15T23:30:32.885Z,6.33
2018-06-15T23:33:01.308Z,5.40
2018-06-15T23:35:30.331Z,6.17
2018-06-15T23:37:59.212Z,6.03
2018-06-15T23:40:28.152Z,6.23
2018-06-15T23:42:57.139Z,5.90
2018-06-15T23:45:26.028Z,5.90
2018-06-15T23:47:55.139Z,5.87
2018-06-15T23:50:23.983Z,5.70
2018-06-15T23:52:53.163Z,5.70
2018-06-15T23:55:22.048Z,5.90
2018-06-15T23:57:50.952Z,6.07
